sensor_id;sensor_type;location;lat;lon;timestamp;temperature;humidity
42141;DHT22;27809;51.864;5.646;2022-07-17T00:02:22;12.50;99.90
42141;DHT22;27809;51.864;5.646;2022-07-17T00:04:47;12.40;99.90
42141;DHT22;27809;51.864;5.646;2022-07-17T00:07:13;12.40;99.90
42141;DHT22;27809;51.864;5.646;2022-07-17T00:09:39;12.30;99.90
42141;DHT22;27809;51.864;5.646;2022-07-17T00:12:04;12.30;99.90
42141;DHT22;27809;51.864;5.646;2022-07-17T00:14:30;12.30;99.90
42141;DHT22;27809;51.864;5.646;2022-07-17T00:16:56;12.30;99.90
42141;DHT22;27809;51.864;5.646;2022-07-17T00:19:23;12.30;99.90
42141;DHT22;27809;51.864;5.646;2022-07-17T00:21:49;12.20;99.90
42141;DHT22;27809;51.864;5.646;2022-07-17T00:24:15;12.20;99.90
42141;DHT22;27809;51.864;5.646;2022-07-17T00:26:46;12.30;99.90
42141;DHT22;27809;51.864;5.646;2022-07-17T00:29:12;12.20;99.90
42141;DHT22;27809;51.864;5.646;2022-07-17T00:31:37;12.10;99.90
42141;DHT22;27809;51.864;5.646;2022-07-17T00:34:03;12.10;99.90
42141;DHT22;27809;51.864;5.646;2022-07-17T00:36:29;12.10;99.90
42141;DHT22;27809;51.864;5.646;2022-07-17T00:38:54;12.20;99.90
42141;DHT22;27809;51.864;5.646;2022-07-17T00:41:20;12.10;99.90
42141;DHT22;27809;51.864;5.646;2022-07-17T00:43:46;12.00;99.90
42141;DHT22;27809;51.864;5.646;2022-07-17T00:46:11;12.00;99.90
42141;DHT22;27809;51.864;5.646;2022-07-17T00:48:37;12.10;99.90
42141;DHT22;27809;51.864;5.646;2022-07-17T00:51:02;12.10;99.90
42141;DHT22;27809;51.864;5.646;2022-07-17T00:53:30;12.10;99.90
42141;DHT22;27809;51.864;5.646;2022-07-17T00:55:57;12.00;99.90
42141;DHT22;27809;51.864;5.646;2022-07-17T00:58:24;11.90;99.90
42141;DHT22;27809;51.864;5.646;2022-07-17T01:00:51;11.90;99.90
42141;DHT22;27809;51.864;5.646;2022-07-17T01:03:18;11.80;99.90
42141;DHT22;27809;51.864;5.646;2022-07-17T01:05:45;11.70;99.90
42141;DHT22;27809;51.864;5.646;2022-07-17T01:08:11;11.80;99.90
42141;DHT22;27809;51.864;5.646;2022-07-17T01:10:37;11.80;99.90
42141;DHT22;27809;51.864;5.646;2022-07-17T01:13:04;11.70;99.90
42141;DHT22;27809;51.864;5.646;2022-07-17T01:15:31;11.70;99.90
42141;DHT22;27809;51.864;5.646;2022-07-17T01:17:57;11.70;99.90
42141;DHT22;27809;51.864;5.646;2022-07-17T01:20:23;11.60;99.90
42141;DHT22;27809;51.864;5.646;2022-07-17T01:22:50;11.60;99.90
42141;DHT22;27809;51.864;5.646;2022-07-17T01:25:20;11.60;99.90
42141;DHT22;27809;51.864;5.646;2022-07-17T01:27:46;11.60;99.90
42141;DHT22;27809;51.864;5.646;2022-07-17T01:30:11;11.40;99.90
42141;DHT22;27809;51.864;5.646;2022-07-17T01:32:40;11.50;99.90
42141;DHT22;27809;51.864;5.646;2022-07-17T01:35:07;11.40;99.90
42141;DHT22;27809;51.864;5.646;2022-07-17T01:37:33;11.40;99.90
42141;DHT22;27809;51.864;5.646;2022-07-17T01:39:59;11.40;99.90
42141;DHT22;27809;51.864;5.646;2022-07-17T01:42:26;11.40;99.90
42141;DHT22;27809;51.864;5.646;2022-07-17T01:44:53;11.40;99.90
42141;DHT22;27809;51.864;5.646;2022-07-17T01:47:19;11.40;99.90
42141;DHT22;27809;51.864;5.646;2022-07-17T01:49:50;11.40;99.90
42141;DHT22;27809;51.864;5.646;2022-07-17T01:52:15;11.30;99.90
42141;DHT22;27809;51.864;5.646;2022-07-17T01:54:42;11.40;99.90
42141;DHT22;27809;51.864;5.646;2022-07-17T01:57:08;11.30;99.90
42141;DHT22;27809;51.864;5.646;2022-07-17T01:59:34;11.20;99.90
42141;DHT22;27809;51.864;5.646;2022-07-17T02:01:59;11.20;99.90
42141;DHT22;27809;51.864;5.646;2022-07-17T02:04:25;11.20;99.90
42141;DHT22;27809;51.864;5.646;2022-07-17T02:06:53;11.10;99.90
42141;DHT22;27809;51.864;5.646;2022-07-17T02:09:20;11.00;99.90
42141;DHT22;27809;51.864;5.646;2022-07-17T02:11:46;11.10;99.90
42141;DHT22;27809;51.864;5.646;2022-07-17T02:14:11;11.20;99.90
42141;DHT22;27809;51.864;5.646;2022-07-17T02:16:37;11.10;99.90
42141;DHT22;27809;51.864;5.646;2022-07-17T02:19:02;11.10;99.90
42141;DHT22;27809;51.864;5.646;2022-07-17T02:21:28;11.10;99.90
42141;DHT22;27809;51.864;5.646;2022-07-17T02:23:53;11.10;99.90
42141;DHT22;27809;51.864;5.646;2022-07-17T02:26:19;11.00;99.90
42141;DHT22;27809;51.864;5.646;2022-07-17T02:28:44;11.10;99.90
42141;DHT22;27809;51.864;5.646;2022-07-17T02:31:10;11.10;99.90
42141;DHT22;27809;51.864;5.646;2022-07-17T02:33:35;11.10;99.90
42141;DHT22;27809;51.864;5.646;2022-07-17T02:36:01;11.00;99.90
42141;DHT22;27809;51.864;5.646;2022-07-17T02:38:27;11.00;99.90
42141;DHT22;27809;51.864;5.646;2022-07-17T02:40:52;10.90;99.90
42141;DHT22;27809;51.864;5.646;2022-07-17T02:43:18;10.80;99.90
42141;DHT22;27809;51.864;5.646;2022-07-17T02:45:44;10.80;99.90
42141;DHT22;27809;51.864;5.646;2022-07-17T02:48:09;10.90;99.90
42141;DHT22;27809;51.864;5.646;2022-07-17T02:50:35;10.90;99.90
42141;DHT22;27809;51.864;5.646;2022-07-17T02:53:00;10.80;99.90
42141;DHT22;27809;51.864;5.646;2022-07-17T02:55:26;10.80;99.90
42141;DHT22;27809;51.864;5.646;2022-07-17T02:57:51;10.70;99.90
42141;DHT22;27809;51.864;5.646;2022-07-17T03:00:18;10.60;99.90
42141;DHT22;27809;51.864;5.646;2022-07-17T03:02:44;10.70;99.90
42141;DHT22;27809;51.864;5.646;2022-07-17T03:05:11;10.70;99.90
42141;DHT22;27809;51.864;5.646;2022-07-17T03:07:37;10.70;99.90
42141;DHT22;27809;51.864;5.646;2022-07-17T03:10:03;10.70;99.90
42141;DHT22;27809;51.864;5.646;2022-07-17T03:12:29;10.70;99.90
42141;DHT22;27809;51.864;5.646;2022-07-17T03:14:54;10.70;99.90
42141;DHT22;27809;51.864;5.646;2022-07-17T03:17:20;10.70;99.90
42141;DHT22;27809;51.864;5.646;2022-07-17T03:19:46;10.60;99.90
42141;DHT22;27809;51.864;5.646;2022-07-17T03:22:11;10.60;99.90
42141;DHT22;27809;51.864;5.646;2022-07-17T03:24:37;10.60;99.90
42141;DHT22;27809;51.864;5.646;2022-07-17T03:27:02;10.60;99.90
42141;DHT22;27809;51.864;5.646;2022-07-17T03:29:28;10.60;99.90
42141;DHT22;27809;51.864;5.646;2022-07-17T03:31:53;10.70;99.90
42141;DHT22;27809;51.864;5.646;2022-07-17T03:34:19;10.70;99.90
42141;DHT22;27809;51.864;5.646;2022-07-17T03:36:45;10.60;99.90
42141;DHT22;27809;51.864;5.646;2022-07-17T03:39:10;10.70;99.90
42141;DHT22;27809;51.864;5.646;2022-07-17T03:41:36;10.60;99.90
42141;DHT22;27809;51.864;5.646;2022-07-17T03:44:01;10.70;99.90
42141;DHT22;27809;51.864;5.646;2022-07-17T03:46:27;10.60;99.90
42141;DHT22;27809;51.864;5.646;2022-07-17T03:48:53;10.60;99.90
42141;DHT22;27809;51.864;5.646;2022-07-17T03:51:18;10.70;99.90
42141;DHT22;27809;51.864;5.646;2022-07-17T03:53:44;10.60;99.90
42141;DHT22;27809;51.864;5.646;2022-07-17T03:56:09;10.60;99.90
42141;DHT22;27809;51.864;5.646;2022-07-17T03:58:35;10.60;99.90
42141;DHT22;27809;51.864;5.646;2022-07-17T04:01:01;10.60;99.90
42141;DHT22;27809;51.864;5.646;2022-07-17T04:03:26;10.60;99.90
42141;DHT22;27809;51.864;5.646;2022-07-17T04:05:52;10.90;99.90
42141;DHT22;27809;51.864;5.646;2022-07-17T04:08:18;10.80;99.90
42141;DHT22;27809;51.864;5.646;2022-07-17T04:10:44;10.80;99.90
42141;DHT22;27809;51.864;5.646;2022-07-17T04:13:10;10.90;99.90
42141;DHT22;27809;51.864;5.646;2022-07-17T04:15:36;11.00;99.90
42141;DHT22;27809;51.864;5.646;2022-07-17T04:18:20;11.00;99.90
42141;DHT22;27809;51.864;5.646;2022-07-17T04:20:50;10.90;99.90
42141;DHT22;27809;51.864;5.646;2022-07-17T04:23:16;10.90;99.90
42141;DHT22;27809;51.864;5.646;2022-07-17T04:25:42;11.00;99.90
42141;DHT22;27809;51.864;5.646;2022-07-17T04:28:08;11.10;99.90
42141;DHT22;27809;51.864;5.646;2022-07-17T04:30:34;11.00;99.90
42141;DHT22;27809;51.864;5.646;2022-07-17T04:33:00;11.00;99.90
42141;DHT22;27809;51.864;5.646;2022-07-17T04:35:26;11.10;99.90
42141;DHT22;27809;51.864;5.646;2022-07-17T04:37:51;11.10;99.90
42141;DHT22;27809;51.864;5.646;2022-07-17T04:40:17;11.10;99.90
42141;DHT22;27809;51.864;5.646;2022-07-17T04:42:42;11.20;99.90
42141;DHT22;27809;51.864;5.646;2022-07-17T04:45:09;11.30;99.90
42141;DHT22;27809;51.864;5.646;2022-07-17T04:47:35;11.40;99.90
42141;DHT22;27809;51.864;5.646;2022-07-17T04:50:00;11.40;99.90
42141;DHT22;27809;51.864;5.646;2022-07-17T04:52:26;11.50;99.90
42141;DHT22;27809;51.864;5.646;2022-07-17T04:54:51;11.40;99.90
42141;DHT22;27809;51.864;5.646;2022-07-17T04:57:17;11.40;99.90
42141;DHT22;27809;51.864;5.646;2022-07-17T04:59:42;11.50;99.90
42141;DHT22;27809;51.864;5.646;2022-07-17T05:02:08;11.60;99.90
42141;DHT22;27809;51.864;5.646;2022-07-17T05:04:34;11.70;99.90
42141;DHT22;27809;51.864;5.646;2022-07-17T05:06:59;11.70;99.90
42141;DHT22;27809;51.864;5.646;2022-07-17T05:09:25;11.80;99.90
42141;DHT22;27809;51.864;5.646;2022-07-17T05:11:51;11.80;99.90
42141;DHT22;27809;51.864;5.646;2022-07-17T05:14:16;11.90;99.90
42141;DHT22;27809;51.864;5.646;2022-07-17T05:16:42;12.00;99.90
42141;DHT22;27809;51.864;5.646;2022-07-17T05:19:07;12.10;99.90
42141;DHT22;27809;51.864;5.646;2022-07-17T05:21:33;12.30;99.90
42141;DHT22;27809;51.864;5.646;2022-07-17T05:23:58;12.50;99.90
42141;DHT22;27809;51.864;5.646;2022-07-17T05:26:24;12.60;99.90
42141;DHT22;27809;51.864;5.646;2022-07-17T05:28:50;12.70;99.90
42141;DHT22;27809;51.864;5.646;2022-07-17T05:31:16;12.90;99.90
42141;DHT22;27809;51.864;5.646;2022-07-17T05:33:41;13.10;99.90
42141;DHT22;27809;51.864;5.646;2022-07-17T05:36:07;13.30;99.90
42141;DHT22;27809;51.864;5.646;2022-07-17T05:38:32;13.40;99.90
42141;DHT22;27809;51.864;5.646;2022-07-17T05:40:59;13.50;99.90
42141;DHT22;27809;51.864;5.646;2022-07-17T05:43:24;13.60;99.90
42141;DHT22;27809;51.864;5.646;2022-07-17T05:45:53;13.70;99.90
42141;DHT22;27809;51.864;5.646;2022-07-17T05:48:19;13.70;99.90
42141;DHT22;27809;51.864;5.646;2022-07-17T05:50:44;13.90;99.90
42141;DHT22;27809;51.864;5.646;2022-07-17T05:53:10;14.00;99.90
42141;DHT22;27809;51.864;5.646;2022-07-17T05:55:35;14.10;99.90
42141;DHT22;27809;51.864;5.646;2022-07-17T05:58:01;14.20;99.90
42141;DHT22;27809;51.864;5.646;2022-07-17T06:00:26;14.20;99.90
42141;DHT22;27809;51.864;5.646;2022-07-17T06:02:52;14.20;99.90
42141;DHT22;27809;51.864;5.646;2022-07-17T06:05:17;14.40;99.90
42141;DHT22;27809;51.864;5.646;2022-07-17T06:07:43;14.80;99.90
42141;DHT22;27809;51.864;5.646;2022-07-17T06:10:09;18.60;90.70
42141;DHT22;27809;51.864;5.646;2022-07-17T06:12:34;19.60;80.90
42141;DHT22;27809;51.864;5.646;2022-07-17T06:15:00;19.70;78.60
42141;DHT22;27809;51.864;5.646;2022-07-17T06:17:26;19.90;78.00
42141;DHT22;27809;51.864;5.646;2022-07-17T06:19:51;19.90;78.40
42141;DHT22;27809;51.864;5.646;2022-07-17T06:22:20;19.50;80.20
42141;DHT22;27809;51.864;5.646;2022-07-17T06:24:47;19.70;78.10
42141;DHT22;27809;51.864;5.646;2022-07-17T06:27:12;20.10;75.20
42141;DHT22;27809;51.864;5.646;2022-07-17T06:29:38;20.00;74.30
42141;DHT22;27809;51.864;5.646;2022-07-17T06:32:04;19.90;74.90
42141;DHT22;27809;51.864;5.646;2022-07-17T06:34:29;20.20;72.90
42141;DHT22;27809;51.864;5.646;2022-07-17T06:36:55;20.10;73.00
42141;DHT22;27809;51.864;5.646;2022-07-17T06:39:21;20.40;71.50
42141;DHT22;27809;51.864;5.646;2022-07-17T06:41:46;20.40;71.30
42141;DHT22;27809;51.864;5.646;2022-07-17T06:44:12;20.20;71.30
42141;DHT22;27809;51.864;5.646;2022-07-17T06:46:37;20.20;71.60
42141;DHT22;27809;51.864;5.646;2022-07-17T06:49:03;20.40;69.90
42141;DHT22;27809;51.864;5.646;2022-07-17T06:51:28;20.40;70.10
42141;DHT22;27809;51.864;5.646;2022-07-17T06:53:54;20.00;69.80
42141;DHT22;27809;51.864;5.646;2022-07-17T06:56:20;20.30;70.10
42141;DHT22;27809;51.864;5.646;2022-07-17T06:58:45;20.50;68.70
42141;DHT22;27809;51.864;5.646;2022-07-17T07:01:11;20.40;69.60
42141;DHT22;27809;51.864;5.646;2022-07-17T07:03:36;19.90;72.00
42141;DHT22;27809;51.864;5.646;2022-07-17T07:06:02;20.20;70.70
42141;DHT22;27809;51.864;5.646;2022-07-17T07:08:27;20.80;66.00
42141;DHT22;27809;51.864;5.646;2022-07-17T07:10:53;20.30;68.70
42141;DHT22;27809;51.864;5.646;2022-07-17T07:13:19;21.00;67.10
42141;DHT22;27809;51.864;5.646;2022-07-17T07:15:44;20.50;69.00
42141;DHT22;27809;51.864;5.646;2022-07-17T07:18:10;20.30;69.40
42141;DHT22;27809;51.864;5.646;2022-07-17T07:20:35;19.90;72.70
42141;DHT22;27809;51.864;5.646;2022-07-17T07:23:01;20.60;69.20
42141;DHT22;27809;51.864;5.646;2022-07-17T07:25:26;20.70;65.70
42141;DHT22;27809;51.864;5.646;2022-07-17T07:27:52;20.90;66.80
42141;DHT22;27809;51.864;5.646;2022-07-17T07:30:17;20.30;69.30
42141;DHT22;27809;51.864;5.646;2022-07-17T07:32:43;21.00;66.30
42141;DHT22;27809;51.864;5.646;2022-07-17T07:35:09;21.00;64.80
42141;DHT22;27809;51.864;5.646;2022-07-17T07:37:35;20.70;67.20
42141;DHT22;27809;51.864;5.646;2022-07-17T07:40:02;21.10;67.70
42141;DHT22;27809;51.864;5.646;2022-07-17T07:42:28;21.40;65.00
42141;DHT22;27809;51.864;5.646;2022-07-17T07:44:54;21.20;65.50
42141;DHT22;27809;51.864;5.646;2022-07-17T07:47:19;21.30;64.70
42141;DHT22;27809;51.864;5.646;2022-07-17T07:49:45;21.10;65.60
42141;DHT22;27809;51.864;5.646;2022-07-17T07:52:11;21.30;64.80
42141;DHT22;27809;51.864;5.646;2022-07-17T07:54:36;21.50;63.90
42141;DHT22;27809;51.864;5.646;2022-07-17T07:57:02;21.40;64.50
42141;DHT22;27809;51.864;5.646;2022-07-17T07:59:28;21.80;61.60
42141;DHT22;27809;51.864;5.646;2022-07-17T08:01:54;21.40;60.50
42141;DHT22;27809;51.864;5.646;2022-07-17T08:04:20;21.60;62.80
42141;DHT22;27809;51.864;5.646;2022-07-17T08:06:46;22.00;59.80
42141;DHT22;27809;51.864;5.646;2022-07-17T08:09:12;21.20;58.40
42141;DHT22;27809;51.864;5.646;2022-07-17T08:11:37;21.40;58.10
42141;DHT22;27809;51.864;5.646;2022-07-17T08:14:03;20.60;58.70
42141;DHT22;27809;51.864;5.646;2022-07-17T08:16:28;21.60;59.30
42141;DHT22;27809;51.864;5.646;2022-07-17T08:18:54;21.80;60.70
42141;DHT22;27809;51.864;5.646;2022-07-17T08:21:20;22.00;59.00
42141;DHT22;27809;51.864;5.646;2022-07-17T08:23:48;22.30;58.00
42141;DHT22;27809;51.864;5.646;2022-07-17T08:26:13;22.90;57.00
42141;DHT22;27809;51.864;5.646;2022-07-17T08:28:39;23.20;54.10
42141;DHT22;27809;51.864;5.646;2022-07-17T08:31:05;22.90;52.90
42141;DHT22;27809;51.864;5.646;2022-07-17T08:33:31;22.10;57.70
42141;DHT22;27809;51.864;5.646;2022-07-17T08:35:57;23.00;54.90
42141;DHT22;27809;51.864;5.646;2022-07-17T08:38:22;23.00;55.50
42141;DHT22;27809;51.864;5.646;2022-07-17T08:40:48;23.20;54.00
42141;DHT22;27809;51.864;5.646;2022-07-17T08:43:15;23.10;55.20
42141;DHT22;27809;51.864;5.646;2022-07-17T08:45:41;23.80;52.40
42141;DHT22;27809;51.864;5.646;2022-07-17T08:48:12;24.00;52.00
42141;DHT22;27809;51.864;5.646;2022-07-17T08:50:38;23.60;52.80
42141;DHT22;27809;51.864;5.646;2022-07-17T08:53:04;23.30;53.90
42141;DHT22;27809;51.864;5.646;2022-07-17T08:55:30;23.70;51.30
42141;DHT22;27809;51.864;5.646;2022-07-17T08:57:56;24.20;50.50
42141;DHT22;27809;51.864;5.646;2022-07-17T09:00:23;23.70;51.50
42141;DHT22;27809;51.864;5.646;2022-07-17T09:03:06;23.90;51.70
42141;DHT22;27809;51.864;5.646;2022-07-17T09:05:37;23.00;53.00
42141;DHT22;27809;51.864;5.646;2022-07-17T09:08:05;23.20;54.00
42141;DHT22;27809;51.864;5.646;2022-07-17T09:10:42;23.40;52.70
42141;DHT22;27809;51.864;5.646;2022-07-17T09:13:14;24.00;51.10
42141;DHT22;27809;51.864;5.646;2022-07-17T09:15:41;24.20;49.80
42141;DHT22;27809;51.864;5.646;2022-07-17T09:18:07;24.20;49.70
42141;DHT22;27809;51.864;5.646;2022-07-17T09:20:32;24.40;49.50
42141;DHT22;27809;51.864;5.646;2022-07-17T09:23:03;23.90;51.80
42141;DHT22;27809;51.864;5.646;2022-07-17T09:25:40;23.60;51.90
42141;DHT22;27809;51.864;5.646;2022-07-17T09:28:07;24.10;50.70
42141;DHT22;27809;51.864;5.646;2022-07-17T09:30:36;23.80;52.00
42141;DHT22;27809;51.864;5.646;2022-07-17T09:33:02;24.20;51.70
42141;DHT22;27809;51.864;5.646;2022-07-17T09:35:30;23.80;52.70
42141;DHT22;27809;51.864;5.646;2022-07-17T09:37:55;23.60;49.80
42141;DHT22;27809;51.864;5.646;2022-07-17T09:40:22;24.30;50.90
42141;DHT22;27809;51.864;5.646;2022-07-17T09:43:23;24.90;49.70
42141;DHT22;27809;51.864;5.646;2022-07-17T09:45:48;24.20;50.90
42141;DHT22;27809;51.864;5.646;2022-07-17T09:48:14;23.70;51.10
42141;DHT22;27809;51.864;5.646;2022-07-17T09:50:40;23.60;51.80
42141;DHT22;27809;51.864;5.646;2022-07-17T09:53:07;23.80;52.60
42141;DHT22;27809;51.864;5.646;2022-07-17T09:55:33;23.70;51.40
42141;DHT22;27809;51.864;5.646;2022-07-17T09:57:59;23.60;49.90
42141;DHT22;27809;51.864;5.646;2022-07-17T10:00:27;24.30;50.10
42141;DHT22;27809;51.864;5.646;2022-07-17T10:02:53;24.80;49.10
42141;DHT22;27809;51.864;5.646;2022-07-17T10:05:19;24.80;49.30
42141;DHT22;27809;51.864;5.646;2022-07-17T10:07:45;24.50;49.00
42141;DHT22;27809;51.864;5.646;2022-07-17T10:10:13;24.50;48.20
42141;DHT22;27809;51.864;5.646;2022-07-17T10:12:41;24.30;48.70
42141;DHT22;27809;51.864;5.646;2022-07-17T10:15:08;24.80;47.90
42141;DHT22;27809;51.864;5.646;2022-07-17T10:17:34;24.20;49.30
42141;DHT22;27809;51.864;5.646;2022-07-17T10:20:00;24.90;47.80
42141;DHT22;27809;51.864;5.646;2022-07-17T10:22:26;24.70;47.70
42141;DHT22;27809;51.864;5.646;2022-07-17T10:24:53;24.50;48.70
42141;DHT22;27809;51.864;5.646;2022-07-17T10:27:26;24.70;48.10
42141;DHT22;27809;51.864;5.646;2022-07-17T10:30:00;25.00;47.60
42141;DHT22;27809;51.864;5.646;2022-07-17T10:32:26;24.70;46.00
42141;DHT22;27809;51.864;5.646;2022-07-17T10:37:23;24.80;45.20
42141;DHT22;27809;51.864;5.646;2022-07-17T10:39:57;24.90;44.10
42141;DHT22;27809;51.864;5.646;2022-07-17T10:42:58;25.30;46.40
42141;DHT22;27809;51.864;5.646;2022-07-17T10:45:36;25.00;45.20
42141;DHT22;27809;51.864;5.646;2022-07-17T10:48:18;24.90;46.80
42141;DHT22;27809;51.864;5.646;2022-07-17T10:50:53;25.00;46.90
42141;DHT22;27809;51.864;5.646;2022-07-17T10:53:24;25.30;46.90
42141;DHT22;27809;51.864;5.646;2022-07-17T10:55:55;25.10;45.60
42141;DHT22;27809;51.864;5.646;2022-07-17T10:58:27;25.00;45.90
42141;DHT22;27809;51.864;5.646;2022-07-17T11:01:03;25.20;44.90
42141;DHT22;27809;51.864;5.646;2022-07-17T11:03:30;25.20;45.30
42141;DHT22;27809;51.864;5.646;2022-07-17T11:06:10;25.40;43.10
42141;DHT22;27809;51.864;5.646;2022-07-17T11:08:46;25.70;44.90
42141;DHT22;27809;51.864;5.646;2022-07-17T11:11:12;25.00;44.60
42141;DHT22;27809;51.864;5.646;2022-07-17T11:13:38;25.20;44.90
42141;DHT22;27809;51.864;5.646;2022-07-17T11:16:04;25.50;45.10
42141;DHT22;27809;51.864;5.646;2022-07-17T11:18:30;25.70;44.40
42141;DHT22;27809;51.864;5.646;2022-07-17T11:21:00;25.40;43.50
42141;DHT22;27809;51.864;5.646;2022-07-17T11:23:29;25.50;44.10
42141;DHT22;27809;51.864;5.646;2022-07-17T11:26:05;25.40;45.60
42141;DHT22;27809;51.864;5.646;2022-07-17T11:28:44;25.60;43.30
42141;DHT22;27809;51.864;5.646;2022-07-17T11:31:24;25.60;45.70
42141;DHT22;27809;51.864;5.646;2022-07-17T11:33:53;25.30;46.10
42141;DHT22;27809;51.864;5.646;2022-07-17T11:38:53;25.30;46.60
42141;DHT22;27809;51.864;5.646;2022-07-17T11:41:19;25.60;45.90
42141;DHT22;27809;51.864;5.646;2022-07-17T11:43:46;25.90;44.30
42141;DHT22;27809;51.864;5.646;2022-07-17T11:46:12;25.80;45.60
42141;DHT22;27809;51.864;5.646;2022-07-17T11:48:41;25.80;45.20
42141;DHT22;27809;51.864;5.646;2022-07-17T11:51:06;25.40;44.80
42141;DHT22;27809;51.864;5.646;2022-07-17T11:53:37;25.50;46.60
42141;DHT22;27809;51.864;5.646;2022-07-17T11:56:04;25.50;46.90
42141;DHT22;27809;51.864;5.646;2022-07-17T11:58:47;25.40;42.80
42141;DHT22;27809;51.864;5.646;2022-07-17T12:01:13;25.40;45.40
42141;DHT22;27809;51.864;5.646;2022-07-17T12:03:39;25.30;42.50
42141;DHT22;27809;51.864;5.646;2022-07-17T12:06:05;24.80;44.70
42141;DHT22;27809;51.864;5.646;2022-07-17T12:08:31;25.40;43.90
42141;DHT22;27809;51.864;5.646;2022-07-17T12:11:02;25.20;44.20
42141;DHT22;27809;51.864;5.646;2022-07-17T12:13:43;25.70;42.30
42141;DHT22;27809;51.864;5.646;2022-07-17T12:16:24;25.70;43.40
42141;DHT22;27809;51.864;5.646;2022-07-17T12:19:08;25.40;42.80
42141;DHT22;27809;51.864;5.646;2022-07-17T12:22:02;25.10;46.00
42141;DHT22;27809;51.864;5.646;2022-07-17T12:24:36;25.00;47.50
42141;DHT22;27809;51.864;5.646;2022-07-17T12:27:05;24.80;46.00
42141;DHT22;27809;51.864;5.646;2022-07-17T12:29:31;24.70;47.60
42141;DHT22;27809;51.864;5.646;2022-07-17T12:34:29;25.10;44.00
42141;DHT22;27809;51.864;5.646;2022-07-17T12:36:55;25.30;42.80
42141;DHT22;27809;51.864;5.646;2022-07-17T12:39:21;25.20;43.80
42141;DHT22;27809;51.864;5.646;2022-07-17T12:41:46;25.10;44.20
42141;DHT22;27809;51.864;5.646;2022-07-17T12:44:12;25.20;46.20
42141;DHT22;27809;51.864;5.646;2022-07-17T12:46:38;25.20;46.40
42141;DHT22;27809;51.864;5.646;2022-07-17T12:49:04;25.10;46.20
42141;DHT22;27809;51.864;5.646;2022-07-17T12:51:30;25.10;46.50
42141;DHT22;27809;51.864;5.646;2022-07-17T12:53:56;25.20;46.00
42141;DHT22;27809;51.864;5.646;2022-07-17T12:56:22;25.60;45.90
42141;DHT22;27809;51.864;5.646;2022-07-17T12:58:48;25.50;45.30
42141;DHT22;27809;51.864;5.646;2022-07-17T13:01:13;25.90;44.40
42141;DHT22;27809;51.864;5.646;2022-07-17T13:03:40;26.00;44.70
42141;DHT22;27809;51.864;5.646;2022-07-17T13:06:05;25.90;44.10
42141;DHT22;27809;51.864;5.646;2022-07-17T13:08:32;25.70;43.00
42141;DHT22;27809;51.864;5.646;2022-07-17T13:10:58;25.50;46.60
42141;DHT22;27809;51.864;5.646;2022-07-17T13:13:23;25.80;46.20
42141;DHT22;27809;51.864;5.646;2022-07-17T13:15:49;25.80;46.30
42141;DHT22;27809;51.864;5.646;2022-07-17T13:18:15;26.00;43.80
42141;DHT22;27809;51.864;5.646;2022-07-17T13:20:40;26.10;41.70
42141;DHT22;27809;51.864;5.646;2022-07-17T13:23:07;25.90;43.60
42141;DHT22;27809;51.864;5.646;2022-07-17T13:25:33;26.10;44.90
42141;DHT22;27809;51.864;5.646;2022-07-17T13:27:58;26.30;42.60
42141;DHT22;27809;51.864;5.646;2022-07-17T13:30:24;26.10;44.80
42141;DHT22;27809;51.864;5.646;2022-07-17T13:32:50;26.40;42.60
42141;DHT22;27809;51.864;5.646;2022-07-17T13:35:15;26.20;44.20
42141;DHT22;27809;51.864;5.646;2022-07-17T13:37:43;26.00;43.70
42141;DHT22;27809;51.864;5.646;2022-07-17T13:40:10;26.20;41.50
42141;DHT22;27809;51.864;5.646;2022-07-17T13:42:35;26.30;41.10
42141;DHT22;27809;51.864;5.646;2022-07-17T13:45:02;26.10;43.60
42141;DHT22;27809;51.864;5.646;2022-07-17T13:47:28;25.60;41.40
42141;DHT22;27809;51.864;5.646;2022-07-17T13:49:54;25.60;44.00
42141;DHT22;27809;51.864;5.646;2022-07-17T13:52:19;25.80;42.20
42141;DHT22;27809;51.864;5.646;2022-07-17T13:54:45;25.90;42.60
42141;DHT22;27809;51.864;5.646;2022-07-17T13:57:10;26.40;40.80
42141;DHT22;27809;51.864;5.646;2022-07-17T13:59:36;26.00;42.70
42141;DHT22;27809;51.864;5.646;2022-07-17T14:02:01;26.30;39.30
42141;DHT22;27809;51.864;5.646;2022-07-17T14:04:27;26.30;40.70
42141;DHT22;27809;51.864;5.646;2022-07-17T14:06:52;26.50;43.40
42141;DHT22;27809;51.864;5.646;2022-07-17T14:09:18;26.30;41.20
42141;DHT22;27809;51.864;5.646;2022-07-17T14:11:44;26.30;43.40
42141;DHT22;27809;51.864;5.646;2022-07-17T14:14:09;26.50;39.80
42141;DHT22;27809;51.864;5.646;2022-07-17T14:16:35;26.30;43.30
42141;DHT22;27809;51.864;5.646;2022-07-17T14:19:00;26.20;43.20
42141;DHT22;27809;51.864;5.646;2022-07-17T14:21:30;26.30;43.40
42141;DHT22;27809;51.864;5.646;2022-07-17T14:23:56;26.30;45.30
42141;DHT22;27809;51.864;5.646;2022-07-17T14:26:22;26.50;43.40
42141;DHT22;27809;51.864;5.646;2022-07-17T14:28:48;26.60;42.40
42141;DHT22;27809;51.864;5.646;2022-07-17T14:31:13;27.00;38.40
42141;DHT22;27809;51.864;5.646;2022-07-17T14:33:39;26.40;40.10
42141;DHT22;27809;51.864;5.646;2022-07-17T14:36:05;26.40;40.90
42141;DHT22;27809;51.864;5.646;2022-07-17T14:38:31;27.00;40.50
42141;DHT22;27809;51.864;5.646;2022-07-17T14:40:57;27.40;38.90
42141;DHT22;27809;51.864;5.646;2022-07-17T14:43:23;27.10;40.40
42141;DHT22;27809;51.864;5.646;2022-07-17T14:45:48;27.50;39.60
42141;DHT22;27809;51.864;5.646;2022-07-17T14:48:14;28.00;38.00
42141;DHT22;27809;51.864;5.646;2022-07-17T14:50:40;28.00;38.20
42141;DHT22;27809;51.864;5.646;2022-07-17T14:53:05;27.70;38.20
42141;DHT22;27809;51.864;5.646;2022-07-17T14:55:31;27.80;41.40
42141;DHT22;27809;51.864;5.646;2022-07-17T14:57:56;28.00;40.60
42141;DHT22;27809;51.864;5.646;2022-07-17T15:00:22;28.20;37.60
42141;DHT22;27809;51.864;5.646;2022-07-17T15:02:47;27.70;37.90
42141;DHT22;27809;51.864;5.646;2022-07-17T15:05:13;27.90;37.30
42141;DHT22;27809;51.864;5.646;2022-07-17T15:07:39;27.60;39.40
42141;DHT22;27809;51.864;5.646;2022-07-17T15:10:04;27.50;40.10
42141;DHT22;27809;51.864;5.646;2022-07-17T15:12:30;27.30;39.40
42141;DHT22;27809;51.864;5.646;2022-07-17T15:14:55;27.30;41.20
42141;DHT22;27809;51.864;5.646;2022-07-17T15:17:21;27.70;38.00
42141;DHT22;27809;51.864;5.646;2022-07-17T15:19:47;27.70;38.90
42141;DHT22;27809;51.864;5.646;2022-07-17T15:22:12;27.80;37.70
42141;DHT22;27809;51.864;5.646;2022-07-17T15:24:38;27.60;39.90
42141;DHT22;27809;51.864;5.646;2022-07-17T15:27:03;27.40;40.80
42141;DHT22;27809;51.864;5.646;2022-07-17T15:29:29;27.70;40.00
42141;DHT22;27809;51.864;5.646;2022-07-17T15:31:54;27.40;39.30
42141;DHT22;27809;51.864;5.646;2022-07-17T15:34:20;27.50;40.90
42141;DHT22;27809;51.864;5.646;2022-07-17T15:36:45;27.80;39.90